Time;durP1;ratioP1;P1;durP2;ratioP2;P2;SDS_P1;SDS_P2;PMS_P1;PMS_P2;Temp;Humidity;BMP_temperature;BMP_pressure;BME280_temperature;BME280_humidity;BME280_pressure;Samples;Min_cycle;Max_cycle;Signal;HPM_P1;HPM_P2
2022/12/26 00:05:17;;;;;;;1999.90;999.90;;;13.40;99.90;;;;;;6685073;88;20205;-74
2022/12/26 00:15:18;;;;;;;1999.90;999.90;;;13.40;99.90;;;;;;6697095;88;20262;-74
2022/12/26 00:25:19;;;;;;;1999.90;999.90;;;13.20;99.90;;;;;;6708329;88;20661;-74
2022/12/26 00:35:19;;;;;;;1999.90;999.90;;;12.90;99.90;;;;;;6693866;88;20329;-74
2022/12/26 00:45:19;;;;;;;1999.90;999.90;;;13.10;99.90;;;;;;6688707;88;20241;-73
2022/12/26 00:55:20;;;;;;;1999.90;999.90;;;12.90;99.90;;;;;;6693093;88;20186;-74
2022/12/26 01:05:21;;;;;;;1999.90;999.90;;;12.90;99.90;;;;;;6690600;88;20213;-74
2022/12/26 01:15:21;;;;;;;1999.90;999.90;;;12.70;99.90;;;;;;6695960;88;20332;-74
2022/12/26 01:25:22;;;;;;;1999.90;999.90;;;12.80;99.90;;;;;;6687317;88;20331;-74
2022/12/26 01:35:23;;;;;;;1999.90;999.90;;;12.60;99.90;;;;;;6691678;88;20191;-74
2022/12/26 01:45:29;;;;;;;1999.90;999.90;;;12.40;99.90;;;;;;6689659;88;20242;-74
2022/12/26 01:55:31;;;;;;;1999.90;999.90;;;12.50;99.90;;;;;;6692360;88;20257;-74
2022/12/26 02:05:32;;;;;;;1999.90;999.90;;;12.60;99.90;;;;;;6687542;88;20207;-73
2022/12/26 02:15:33;;;;;;;1999.90;999.90;;;12.70;99.90;;;;;;6690994;88;20669;-74
2022/12/26 02:25:58;;;;;;;1999.90;999.90;;;12.80;99.90;;;;;;6688253;88;20385;-74
2022/12/26 02:36:42;;;;;;;1999.90;999.90;;;12.80;99.90;;;;;;6685686;88;20539;-74
2022/12/26 02:47:02;;;;;;;1999.90;999.90;;;12.80;99.90;;;;;;6688469;88;20607;-74
2022/12/26 03:17:54;;;;;;;1999.90;999.90;;;12.70;99.90;;;;;;6689575;88;20186;-73
2022/12/26 03:27:55;;;;;;;1999.90;999.90;;;12.70;99.90;;;;;;6687540;88;20217;-74
2022/12/26 03:38:05;;;;;;;1999.90;999.90;;;12.40;99.90;;;;;;6692319;88;20182;-74
2022/12/26 04:20:45;;;;;;;1999.90;999.90;;;12.30;99.90;;;;;;6685789;88;20239;-74
2022/12/26 04:51:34;;;;;;;1999.90;999.90;;;12.30;99.90;;;;;;6703343;88;20179;-74
2022/12/26 05:11:54;;;;;;;1999.90;999.90;;;12.40;99.90;;;;;;6694681;88;20199;-74
2022/12/26 05:42:33;;;;;;;1999.90;999.90;;;11.80;99.90;;;;;;6695097;88;20241;-74
2022/12/26 05:52:34;;;;;;;1999.90;999.90;;;11.60;99.90;;;;;;6695400;88;20686;-78
2022/12/26 06:02:34;;;;;;;1999.90;999.90;;;11.50;99.90;;;;;;6690895;88;20321;-74
2022/12/26 06:12:35;;;;;;;1999.90;999.90;;;11.30;99.90;;;;;;6689475;88;20202;-74
2022/12/26 06:22:36;;;;;;;1999.90;999.90;;;11.40;99.90;;;;;;6685943;88;20195;-74
2022/12/26 06:32:36;;;;;;;1999.90;999.90;;;11.40;99.90;;;;;;6685631;88;20190;-74
2022/12/26 06:42:37;;;;;;;1999.90;999.90;;;11.40;99.90;;;;;;6688776;88;20578;-74
2022/12/26 06:52:37;;;;;;;1999.90;999.90;;;11.30;99.90;;;;;;6688413;88;20587;-74
2022/12/26 07:02:38;;;;;;;1999.90;999.90;;;11.00;99.90;;;;;;6690376;88;20608;-74
2022/12/26 07:12:38;;;;;;;1999.90;999.90;;;10.80;99.90;;;;;;6684573;88;20751;-74
2022/12/26 07:22:39;;;;;;;1999.90;999.90;;;10.70;99.90;;;;;;6689941;88;20212;-75
2022/12/26 07:32:39;;;;;;;1999.90;999.90;;;10.70;99.90;;;;;;6685050;88;20187;-75
2022/12/26 07:42:40;;;;;;;1999.90;999.90;;;10.60;99.90;;;;;;6691420;88;20511;-75
2022/12/26 07:52:40;;;;;;;1999.90;999.90;;;10.50;99.90;;;;;;6681034;88;20216;-74
2022/12/26 08:02:41;;;;;;;1999.90;999.90;;;10.60;99.90;;;;;;6687770;88;20202;-74
2022/12/26 08:12:41;;;;;;;1999.90;999.90;;;10.30;99.90;;;;;;6691611;88;20207;-74
2022/12/26 08:22:42;;;;;;;1999.90;999.90;;;10.30;99.90;;;;;;6693491;88;20207;-74
2022/12/26 08:32:42;;;;;;;1999.90;999.90;;;10.30;99.90;;;;;;6687161;88;20537;-75
2022/12/26 08:42:43;;;;;;;1999.90;999.90;;;10.30;99.90;;;;;;6692890;88;20233;-75
2022/12/26 08:52:43;;;;;;;1999.90;999.90;;;10.40;99.90;;;;;;6689679;88;20211;-74
2022/12/26 09:02:44;;;;;;;1999.90;999.90;;;10.60;99.90;;;;;;6692324;88;20194;-74
2022/12/26 09:12:44;;;;;;;1999.90;999.90;;;10.60;99.90;;;;;;6689833;88;20186;-75
2022/12/26 09:22:51;;;;;;;1999.90;999.90;;;10.70;99.90;;;;;;6688890;88;20190;-74
2022/12/26 09:32:52;;;;;;;1999.90;999.90;;;10.90;99.90;;;;;;6683622;88;20227;-74
2022/12/26 09:43:18;;;;;;;1999.90;999.90;;;11.10;99.90;;;;;;6689741;88;20651;-74
2022/12/26 09:53:30;;;;;;;1999.90;999.90;;;11.50;99.90;;;;;;6685495;88;20255;-74
2022/12/26 10:03:38;;;;;;;1999.90;999.90;;;11.70;99.90;;;;;;6693015;88;20326;-74
2022/12/26 10:13:50;;;;;;;1999.90;999.90;;;12.10;99.90;;;;;;6690874;88;20197;-74
2022/12/26 10:23:59;;;;;;;1999.90;999.90;;;12.50;99.90;;;;;;6690206;88;20256;-74
2022/12/26 10:34:17;;;;;;;1999.90;999.90;;;12.70;99.90;;;;;;6688819;88;20190;-74
2022/12/26 10:44:18;;;;;;;1999.90;999.90;;;13.00;99.90;;;;;;6683915;88;20206;-74
2022/12/26 10:54:19;;;;;;;1999.90;999.90;;;13.00;99.90;;;;;;6687179;88;20249;-74
2022/12/26 11:04:22;;;;;;;1999.90;999.90;;;13.00;99.90;;;;;;6691357;88;20265;-74
2022/12/26 11:14:27;;;;;;;1999.90;999.90;;;13.20;99.90;;;;;;6697475;88;20288;-74
2022/12/26 11:24:27;;;;;;;1999.90;999.90;;;13.50;99.90;;;;;;6686874;88;20655;-74
2022/12/26 11:34:44;;;;;;;1999.90;999.90;;;13.40;99.90;;;;;;6689164;88;20197;-74
2022/12/26 11:44:51;;;;;;;1999.90;999.90;;;13.30;99.90;;;;;;6724431;77;20709;-79
2022/12/26 11:54:51;;;;;;;1999.90;999.90;;;13.20;99.90;;;;;;6707282;88;20672;-77
2022/12/26 12:04:56;;;;;;;1999.90;999.90;;;13.00;99.90;;;;;;6707197;88;20219;-77
2022/12/26 12:15:14;;;;;;;1999.90;999.90;;;12.80;99.90;;;;;;6703832;88;20333;-79
2022/12/26 12:25:23;;;;;;;1999.90;999.90;;;12.80;99.90;;;;;;6711786;88;20275;-77
2022/12/26 12:35:42;;;;;;;1999.90;999.90;;;12.80;99.90;;;;;;6708092;88;20252;-76
2022/12/26 12:45:48;;;;;;;1999.90;999.90;;;12.70;99.90;;;;;;6717829;88;20192;-78
2022/12/26 12:56:19;;;;;;;1999.90;999.90;;;12.70;99.90;;;;;;6721121;88;20624;-78
2022/12/26 13:06:24;;;;;;;1999.90;999.90;;;12.80;99.90;;;;;;6704219;88;20311;-78
2022/12/26 13:16:29;;;;;;;1999.90;999.90;;;12.60;99.90;;;;;;6704334;88;20193;-79
2022/12/26 13:26:38;;;;;;;1999.90;999.90;;;12.30;99.90;;;;;;6705955;88;20209;-79
2022/12/26 13:36:48;;;;;;;1999.90;999.90;;;12.10;99.90;;;;;;6703675;88;20194;-78
2022/12/26 13:46:49;;;;;;;1999.90;999.90;;;12.10;99.90;;;;;;6706936;88;20199;-80
2022/12/26 13:57:14;;;;;;;1999.90;999.90;;;12.00;99.90;;;;;;6704093;88;20697;-77
2022/12/26 14:07:36;;;;;;;1999.90;999.90;;;12.00;99.90;;;;;;6704079;88;20670;-76
2022/12/26 14:18:05;;;;;;;1999.90;999.90;;;11.90;99.90;;;;;;6709995;88;20309;-76
2022/12/26 14:28:28;;;;;;;1999.90;999.90;;;10.90;99.90;;;;;;6715225;88;20193;-76
2022/12/26 14:39:05;;;;;;;1999.90;999.90;;;9.70;99.90;;;;;;6717891;88;20198;-76
2022/12/26 14:49:30;;;;;;;1999.90;999.90;;;9.40;99.90;;;;;;6706726;88;20335;-77
2022/12/26 14:59:33;;;;;;;1999.90;999.90;;;9.20;99.90;;;;;;6717625;88;20617;-77
2022/12/26 15:10:17;;;;;;;1999.90;999.90;;;9.10;99.90;;;;;;6720080;88;20217;-77
2022/12/26 15:20:54;;;;;;;1999.90;999.90;;;9.00;99.90;;;;;;6720184;88;20181;-76
2022/12/26 15:31:24;;;;;;;1999.90;999.90;;;8.70;99.90;;;;;;6720389;88;20320;-77
2022/12/26 15:41:31;;;;;;;1999.90;999.90;;;8.60;99.90;;;;;;6719905;88;20215;-77
2022/12/26 15:51:43;;;;;;;1999.90;999.90;;;8.40;99.90;;;;;;6719791;88;20233;-77
2022/12/26 16:01:47;;;;;;;1999.90;999.90;;;8.40;99.90;;;;;;6719711;88;20186;-77
2022/12/26 16:11:55;;;;;;;1999.90;999.90;;;8.40;99.90;;;;;;6720563;88;20203;-77
2022/12/26 16:32:38;;;;;;;1999.90;999.90;;;8.30;99.90;;;;;;6717244;88;20190;-78
2022/12/26 16:42:41;;;;;;;1999.90;999.90;;;8.20;99.90;;;;;;6720483;88;20206;-79
2022/12/26 16:52:42;;;;;;;1999.90;999.90;;;8.00;99.90;;;;;;6703508;88;20752;-76
2022/12/26 17:02:45;;;;;;;1999.90;999.90;;;7.80;99.90;;;;;;6714149;88;20242;-77
2022/12/26 17:12:47;;;;;;;1999.90;999.90;;;7.70;99.90;;;;;;6720061;88;20190;-76
2022/12/26 17:22:49;;;;;;;1999.90;999.90;;;7.60;99.90;;;;;;6731871;88;20297;-76
2022/12/26 17:32:49;;;;;;;1999.90;999.90;;;7.50;99.90;;;;;;6708180;88;20220;-76
2022/12/26 17:42:53;;;;;;;1999.90;999.90;;;7.50;99.90;;;;;;6734111;77;20188;-76
2022/12/26 17:52:53;;;;;;;1999.90;999.90;;;7.40;99.90;;;;;;6718202;88;20198;-75
2022/12/26 18:02:55;;;;;;;1999.90;999.90;;;7.30;99.90;;;;;;6724813;88;20188;-74
2022/12/26 18:12:56;;;;;;;1999.90;999.90;;;7.30;99.90;;;;;;6723607;88;20217;-75
2022/12/26 18:22:57;;;;;;;1999.90;999.90;;;7.00;99.90;;;;;;6724930;88;20243;-75
2022/12/26 18:32:57;;;;;;;1999.90;999.90;;;6.70;99.90;;;;;;6720047;88;20210;-75
2022/12/26 18:42:58;;;;;;;1999.90;999.90;;;6.50;99.90;;;;;;6720857;88;20682;-74
2022/12/26 18:52:59;;;;;;;1999.90;999.90;;;6.30;99.90;;;;;;6720849;88;20208;-74
2022/12/26 19:03:00;;;;;;;1999.90;999.90;;;6.20;99.90;;;;;;6720021;88;20258;-75
2022/12/26 19:13:03;;;;;;;1999.90;999.90;;;6.10;99.90;;;;;;6722167;88;20702;-74
2022/12/26 19:23:04;;;;;;;1999.90;999.90;;;6.00;99.90;;;;;;6729219;88;20224;-75
2022/12/26 19:33:04;;;;;;;1999.90;999.90;;;5.80;99.90;;;;;;6730664;88;20185;-75
2022/12/26 19:43:05;;;;;;;1999.90;999.90;;;5.60;99.90;;;;;;6725570;88;20283;-74
2022/12/26 19:53:05;;;;;;;1999.90;999.90;;;5.40;99.90;;;;;;6722265;88;20231;-74
2022/12/26 20:03:06;;;;;;;1999.90;999.90;;;5.20;99.90;;;;;;6724750;88;20221;-75
2022/12/26 20:13:06;;;;;;;1999.90;999.90;;;5.00;99.90;;;;;;6724567;88;20203;-74
2022/12/26 20:23:07;;;;;;;1999.90;999.90;;;4.90;99.90;;;;;;6723908;88;20298;-74
2022/12/26 20:33:08;;;;;;;1999.90;999.90;;;4.80;99.90;;;;;;6726950;88;20193;-74
2022/12/26 20:43:08;;;;;;;1999.90;999.90;;;4.70;99.90;;;;;;6718070;88;20201;-75
2022/12/26 20:53:09;;;;;;;1999.90;999.90;;;4.70;99.90;;;;;;6722306;88;20251;-74
2022/12/26 21:03:13;;;;;;;1999.90;999.90;;;4.70;99.90;;;;;;6722779;88;20211;-74
2022/12/26 21:13:14;;;;;;;1999.90;999.90;;;4.60;99.90;;;;;;6719727;88;20232;-74
2022/12/26 21:23:14;;;;;;;1999.90;999.90;;;4.50;99.90;;;;;;6724004;88;20205;-74
2022/12/26 21:33:15;;;;;;;1999.90;999.90;;;4.50;99.90;;;;;;6731123;88;20209;-74
2022/12/26 21:43:16;;;;;;;1999.90;999.90;;;4.30;99.90;;;;;;6724116;88;20541;-75
2022/12/26 21:53:16;;;;;;;1999.90;999.90;;;4.20;99.90;;;;;;6721023;88;20181;-75
2022/12/26 22:13:39;;;;;;;1999.90;999.90;;;4.30;99.90;;;;;;6732999;88;20546;-73
2022/12/26 22:23:41;;;;;;;1999.90;999.90;;;4.30;99.90;;;;;;6719947;88;20680;-73
2022/12/26 22:33:41;;;;;;;1999.90;999.90;;;4.30;99.90;;;;;;6719955;88;20634;-74
2022/12/26 22:43:42;;;;;;;1999.90;999.90;;;4.20;99.90;;;;;;6728890;88;20208;-74
2022/12/26 22:53:42;;;;;;;1999.90;999.90;;;4.10;99.90;;;;;;6723684;88;20178;-73
2022/12/26 23:03:43;;;;;;;1999.90;999.90;;;4.10;99.90;;;;;;6727470;88;21024;-74
2022/12/26 23:13:44;;;;;;;1999.90;999.90;;;4.10;99.90;;;;;;6726422;88;20234;-72
2022/12/26 23:23:45;;;;;;;1999.90;999.90;;;4.00;99.90;;;;;;6723902;88;20310;-73
2022/12/26 23:33:45;;;;;;;1999.90;999.90;;;4.00;99.90;;;;;;6722736;88;20282;-74
2022/12/26 23:43:46;;;;;;;1999.90;999.90;;;4.10;99.90;;;;;;6710412;77;20191;-73
2022/12/26 23:53:46;;;;;;;1999.90;999.90;;;4.20;99.90;;;;;;6683574;88;20205;-73
